createdAt,value
2019-01-29T00:00:47.941Z,15.93
2019-01-29T00:03:16.161Z,16.70
2019-01-29T00:05:44.018Z,15.00
2019-01-29T00:08:11.928Z,16.85
2019-01-29T00:10:39.889Z,18.05
2019-01-29T00:13:07.823Z,21.23
2019-01-29T00:15:36.658Z,15.72
2019-01-29T00:18:05.365Z,18.92
2019-01-29T00:20:37.060Z,19.30
2019-01-29T00:23:05.229Z,17.67
2019-01-29T00:25:34.410Z,17.75
2019-01-29T00:28:04.091Z,18.85
2019-01-29T00:30:33.136Z,14.75
2019-01-29T00:33:01.031Z,16.70
2019-01-29T00:35:28.928Z,15.68
2019-01-29T00:38:07.062Z,15.88
2019-01-29T00:40:42.445Z,16.12
2019-01-29T00:43:10.329Z,17.15
2019-01-29T00:45:38.250Z,17.57
2019-01-29T00:48:10.085Z,14.83
2019-01-29T00:50:39.970Z,17.00
2019-01-29T00:53:07.638Z,15.40
2019-01-29T00:55:35.575Z,16.27
2019-01-29T00:58:03.486Z,17.32
2019-01-29T01:00:32.482Z,16.97
2019-01-29T01:03:03.074Z,15.10
2019-01-29T01:05:39.622Z,17.30
2019-01-29T01:08:10.568Z,15.60
2019-01-29T01:10:38.518Z,14.65
2019-01-29T01:13:07.233Z,15.63
2019-01-29T01:15:35.151Z,16.07
2019-01-29T01:18:03.094Z,15.03
2019-01-29T01:20:31.061Z,15.95
2019-01-29T01:23:02.441Z,16.87
2019-01-29T01:25:37.102Z,15.58
2019-01-29T01:28:06.299Z,20.23
2019-01-29T01:30:35.310Z,22.55
2019-01-29T01:33:03.367Z,16.95
2019-01-29T01:35:31.242Z,16.32
2019-01-29T01:38:00.155Z,14.95
2019-01-29T01:40:28.085Z,16.23
2019-01-29T01:42:55.999Z,16.02
2019-01-29T01:45:24.503Z,16.52
2019-01-29T01:47:52.822Z,15.95
2019-01-29T01:50:23.972Z,15.60
2019-01-29T01:52:59.208Z,15.88
2019-01-29T01:55:22.618Z,17.98
2019-01-29T01:57:51.823Z,14.63
2019-01-29T02:00:20.691Z,15.95
2019-01-29T02:02:49.647Z,16.25
2019-01-29T02:05:17.758Z,15.28
2019-01-29T02:07:45.634Z,19.90
2019-01-29T02:10:21.041Z,17.92
2019-01-29T02:12:48.910Z,16.20
2019-01-29T02:15:16.798Z,15.90
2019-01-29T02:17:44.732Z,20.62
2019-01-29T02:20:13.282Z,16.37
2019-01-29T02:22:43.322Z,18.55
2019-01-29T02:25:11.867Z,16.55
2019-01-29T02:27:39.721Z,21.33
2019-01-29T02:30:10.608Z,15.68
2019-01-29T02:32:38.476Z,18.12
2019-01-29T02:35:07.500Z,16.52
2019-01-29T02:37:35.398Z,19.98
2019-01-29T02:40:05.431Z,16.52
2019-01-29T02:42:33.273Z,15.38
2019-01-29T02:45:01.179Z,17.40
2019-01-29T02:47:29.345Z,17.95
2019-01-29T02:49:57.609Z,15.00
2019-01-29T02:52:25.498Z,19.35
2019-01-29T02:54:53.809Z,19.15
2019-01-29T02:57:21.705Z,19.62
2019-01-29T02:59:50.545Z,17.37
2019-01-29T03:02:18.501Z,17.92
2019-01-29T03:04:48.114Z,18.45
2019-01-29T03:07:17.245Z,19.10
2019-01-29T03:09:45.126Z,17.90
2019-01-29T03:12:13.370Z,18.90
2019-01-29T03:14:45.517Z,21.10
2019-01-29T03:17:14.883Z,18.30
2019-01-29T03:19:42.821Z,16.75
2019-01-29T03:22:13.309Z,16.60
2019-01-29T03:24:41.250Z,19.45
2019-01-29T03:27:09.344Z,21.25
2019-01-29T03:29:38.317Z,19.23
2019-01-29T03:32:07.431Z,18.90
2019-01-29T03:34:35.298Z,20.85
2019-01-29T03:37:04.480Z,16.55
2019-01-29T03:39:32.426Z,21.10
2019-01-29T03:42:00.315Z,19.70
2019-01-29T03:44:28.683Z,16.87
2019-01-29T03:46:56.567Z,19.55
2019-01-29T03:49:25.553Z,17.00
2019-01-29T03:51:53.473Z,20.25
2019-01-29T03:54:21.345Z,20.52
2019-01-29T03:56:51.570Z,19.52
2019-01-29T03:59:27.133Z,19.57
2019-01-29T04:01:54.997Z,20.70
2019-01-29T04:04:25.393Z,22.05
2019-01-29T04:07:05.448Z,23.35
2019-01-29T04:09:34.053Z,22.58
2019-01-29T04:12:01.916Z,23.20
2019-01-29T04:14:29.831Z,23.18
2019-01-29T04:16:59.194Z,18.45
2019-01-29T04:19:27.993Z,18.30
2019-01-29T04:21:57.790Z,22.15
2019-01-29T04:24:27.678Z,24.45
2019-01-29T04:26:57.077Z,22.40
2019-01-29T04:29:25.009Z,24.85
2019-01-29T04:31:52.965Z,22.70
2019-01-29T04:34:21.941Z,20.62
2019-01-29T04:36:50.951Z,26.35
2019-01-29T04:39:18.902Z,19.17
2019-01-29T04:41:48.347Z,20.05
2019-01-29T04:44:16.482Z,18.92
2019-01-29T04:46:44.406Z,21.75
2019-01-29T04:49:12.392Z,21.30
2019-01-29T04:51:40.364Z,25.05
2019-01-29T04:54:10.619Z,22.98
2019-01-29T04:56:38.505Z,20.23
2019-01-29T04:59:10.097Z,22.52
2019-01-29T05:01:39.322Z,22.60
2019-01-29T05:04:09.337Z,23.02
2019-01-29T05:06:37.268Z,22.85
2019-01-29T05:09:07.506Z,22.10
2019-01-29T05:11:36.974Z,25.75
2019-01-29T05:14:05.263Z,24.05
2019-01-29T05:16:33.185Z,22.15
2019-01-29T05:19:01.065Z,21.62
2019-01-29T05:21:32.909Z,26.15
2019-01-29T05:24:06.595Z,23.73
2019-01-29T05:26:32.705Z,21.75
2019-01-29T05:29:00.661Z,23.15
2019-01-29T05:31:29.669Z,20.43
2019-01-29T05:33:57.701Z,21.27
2019-01-29T05:36:26.264Z,25.27
2019-01-29T05:38:55.259Z,22.75
2019-01-29T05:41:23.202Z,19.85
2019-01-29T05:43:52.437Z,20.55
2019-01-29T05:46:20.421Z,20.55
2019-01-29T05:48:48.323Z,19.75
2019-01-29T05:51:16.541Z,22.42
2019-01-29T05:53:44.825Z,20.10
2019-01-29T05:56:13.662Z,20.35
2019-01-29T05:58:42.020Z,22.13
2019-01-29T06:01:09.997Z,25.55
2019-01-29T06:03:37.946Z,23.02
2019-01-29T06:06:05.839Z,28.40
2019-01-29T06:08:33.737Z,24.70
2019-01-29T06:11:01.668Z,24.45
2019-01-29T06:13:29.585Z,29.92
2019-01-29T06:15:57.875Z,25.30
2019-01-29T06:18:26.955Z,29.72
2019-01-29T06:20:55.242Z,29.27
2019-01-29T06:23:24.171Z,27.17
2019-01-29T06:25:52.100Z,28.80
2019-01-29T06:28:24.792Z,26.80
2019-01-29T06:30:52.716Z,31.00
2019-01-29T06:33:20.616Z,30.50
2019-01-29T06:35:48.627Z,33.20
2019-01-29T06:38:18.234Z,26.57
2019-01-29T06:40:47.236Z,26.93
2019-01-29T06:43:15.119Z,27.65
2019-01-29T06:45:47.325Z,26.48
2019-01-29T06:48:15.260Z,32.55
2019-01-29T06:50:43.157Z,32.42
2019-01-29T06:53:11.023Z,33.67
2019-01-29T06:55:40.510Z,35.28
2019-01-29T06:58:08.398Z,34.03
2019-01-29T07:00:36.298Z,34.33
2019-01-29T07:03:05.234Z,33.35
2019-01-29T07:05:33.165Z,39.60
2019-01-29T07:08:01.178Z,36.08
2019-01-29T07:10:29.242Z,36.38
2019-01-29T07:12:57.098Z,45.75
2019-01-29T07:15:43.229Z,41.85
2019-01-29T07:18:20.798Z,42.90
2019-01-29T07:20:56.603Z,43.40
2019-01-29T07:23:24.534Z,41.92
2019-01-29T07:25:54.672Z,41.08
2019-01-29T07:28:22.579Z,42.65
2019-01-29T07:30:50.491Z,42.93
2019-01-29T07:33:20.863Z,46.68
2019-01-29T07:35:48.881Z,42.38
2019-01-29T07:38:17.094Z,40.30
2019-01-29T07:40:46.453Z,41.15
2019-01-29T07:43:14.426Z,36.03
2019-01-29T07:45:42.289Z,46.48
2019-01-29T07:48:10.132Z,47.55
2019-01-29T07:50:37.957Z,44.67
2019-01-29T07:53:05.793Z,49.13
2019-01-29T07:55:33.606Z,46.85
2019-01-29T07:58:01.449Z,52.10
2019-01-29T08:00:29.273Z,47.38
2019-01-29T08:02:57.094Z,42.78
2019-01-29T08:05:24.956Z,37.13
2019-01-29T08:07:52.773Z,41.45
2019-01-29T08:10:20.649Z,38.40
2019-01-29T08:12:48.456Z,46.90
2019-01-29T08:15:16.339Z,40.70
2019-01-29T08:17:44.143Z,45.98
2019-01-29T08:20:12.023Z,44.18
2019-01-29T08:22:39.863Z,39.15
2019-01-29T08:25:07.848Z,41.18
2019-01-29T08:27:35.681Z,37.38
2019-01-29T08:30:04.253Z,41.73
2019-01-29T08:32:32.210Z,43.15
2019-01-29T08:35:00.184Z,40.78
2019-01-29T08:37:28.073Z,41.37
2019-01-29T08:39:55.966Z,45.33
2019-01-29T08:42:23.799Z,46.25
2019-01-29T08:44:51.632Z,44.50
2019-01-29T08:47:19.473Z,47.98
2019-01-29T08:49:47.306Z,44.70
2019-01-29T08:52:15.214Z,47.38
2019-01-29T08:54:43.031Z,47.43
2019-01-29T08:57:10.874Z,45.70
2019-01-29T08:59:38.746Z,49.18
2019-01-29T09:02:08.160Z,48.38
2019-01-29T09:04:36.503Z,48.25
2019-01-29T09:07:04.366Z,49.88
2019-01-29T09:09:32.206Z,44.65
2019-01-29T09:12:00.037Z,43.52
2019-01-29T09:14:27.854Z,46.58
2019-01-29T09:16:55.693Z,41.70
2019-01-29T09:19:23.593Z,41.50
2019-01-29T09:21:51.437Z,43.23
2019-01-29T09:24:19.278Z,46.05
2019-01-29T09:26:47.118Z,43.92
2019-01-29T09:29:17.859Z,43.45
2019-01-29T09:31:44.522Z,44.20
2019-01-29T09:34:12.346Z,38.73
2019-01-29T09:36:40.208Z,41.83
2019-01-29T09:39:09.448Z,42.90
2019-01-29T09:41:37.405Z,36.98
2019-01-29T09:44:05.448Z,38.80
2019-01-29T09:46:33.308Z,36.38
2019-01-29T09:49:01.154Z,37.30
2019-01-29T09:51:29.000Z,36.23
2019-01-29T09:53:56.878Z,37.75
2019-01-29T09:56:24.758Z,37.23
2019-01-29T09:58:52.605Z,36.45
2019-01-29T10:01:20.466Z,34.58
2019-01-29T10:03:48.337Z,32.10
2019-01-29T10:06:16.157Z,36.45
2019-01-29T10:08:43.990Z,34.85
2019-01-29T10:11:12.229Z,38.65
2019-01-29T10:13:40.072Z,36.55
2019-01-29T10:16:07.917Z,34.78
2019-01-29T10:18:35.867Z,39.98
2019-01-29T10:21:03.767Z,36.13
2019-01-29T10:23:31.630Z,42.98
2019-01-29T10:25:59.495Z,37.35
2019-01-29T10:28:27.409Z,36.93
2019-01-29T10:30:55.329Z,37.45
2019-01-29T10:33:23.160Z,32.88
2019-01-29T10:35:51.029Z,34.35
2019-01-29T10:38:18.940Z,35.98
2019-01-29T10:40:46.789Z,37.10
2019-01-29T10:43:14.615Z,31.93
2019-01-29T10:45:42.733Z,33.38
2019-01-29T10:48:10.602Z,43.13
2019-01-29T10:50:38.446Z,39.42
2019-01-29T10:53:06.318Z,40.67
2019-01-29T10:55:34.185Z,33.28
2019-01-29T10:58:02.114Z,31.42
2019-01-29T11:00:31.234Z,38.73
2019-01-29T11:02:59.114Z,31.23
2019-01-29T11:05:27.044Z,34.83
2019-01-29T11:07:55.335Z,32.10
2019-01-29T11:10:23.188Z,34.67
2019-01-29T11:12:53.804Z,31.70
2019-01-29T11:15:23.038Z,30.55
2019-01-29T11:17:51.096Z,32.10
2019-01-29T11:20:19.158Z,30.00
2019-01-29T11:22:47.201Z,33.70
2019-01-29T11:25:16.729Z,33.70
2019-01-29T11:27:44.608Z,33.08
2019-01-29T11:30:13.208Z,29.72
2019-01-29T11:32:41.101Z,29.95
2019-01-29T11:35:09.121Z,34.73
2019-01-29T11:37:37.085Z,30.97
2019-01-29T11:40:05.669Z,29.12
2019-01-29T11:42:33.525Z,32.85
2019-01-29T11:45:01.442Z,28.27
2019-01-29T11:47:29.293Z,28.55
2019-01-29T11:49:57.228Z,28.73
2019-01-29T11:52:25.057Z,27.17
2019-01-29T11:54:52.919Z,29.95
2019-01-29T11:57:20.770Z,26.73
2019-01-29T11:59:48.846Z,26.77
2019-01-29T12:02:16.720Z,29.52
2019-01-29T12:04:44.555Z,29.82
2019-01-29T12:07:12.419Z,32.03
2019-01-29T12:09:40.285Z,27.60
2019-01-29T12:12:08.091Z,27.52
2019-01-29T12:14:35.984Z,22.00
2019-01-29T12:17:03.852Z,22.20
2019-01-29T12:19:31.704Z,20.80
2019-01-29T12:21:59.589Z,21.12
2019-01-29T12:24:29.624Z,23.55
2019-01-29T12:26:57.489Z,21.07
2019-01-29T12:29:25.390Z,22.93
2019-01-29T12:31:53.261Z,22.07
2019-01-29T12:34:21.119Z,28.50
2019-01-29T12:36:49.030Z,22.40
2019-01-29T12:39:16.889Z,20.40
2019-01-29T12:41:44.765Z,22.20
2019-01-29T12:44:12.707Z,21.00
2019-01-29T12:46:40.810Z,21.70
2019-01-29T12:49:08.730Z,24.55
2019-01-29T12:51:49.785Z,23.67
2019-01-29T12:54:17.608Z,21.77
2019-01-29T12:56:45.519Z,22.67
2019-01-29T12:59:13.389Z,20.02
2019-01-29T13:01:41.282Z,21.57
2019-01-29T13:04:09.191Z,18.48
2019-01-29T13:06:37.118Z,19.98
2019-01-29T13:09:06.926Z,18.62
2019-01-29T13:11:34.784Z,20.32
2019-01-29T13:14:02.654Z,18.73
2019-01-29T13:16:30.493Z,19.30
2019-01-29T13:18:58.337Z,19.92
2019-01-29T13:21:26.241Z,20.72
2019-01-29T13:23:54.112Z,19.20
2019-01-29T13:26:29.497Z,23.05
2019-01-29T13:28:51.550Z,22.90
2019-01-29T13:31:19.375Z,21.45
2019-01-29T13:33:47.505Z,24.77
2019-01-29T13:36:15.351Z,19.02
2019-01-29T13:38:43.202Z,21.80
2019-01-29T13:41:11.057Z,23.15
2019-01-29T13:43:38.917Z,24.63
2019-01-29T13:46:06.766Z,25.30
2019-01-29T13:48:34.630Z,20.82
2019-01-29T13:51:02.471Z,20.08
2019-01-29T13:53:30.323Z,20.88
2019-01-29T13:55:58.346Z,21.40
2019-01-29T13:58:26.178Z,20.57
2019-01-29T14:00:54.218Z,21.05
2019-01-29T14:03:22.138Z,20.15
2019-01-29T14:05:50.034Z,20.77
2019-01-29T14:08:17.869Z,18.87
2019-01-29T14:10:45.720Z,25.30
2019-01-29T14:13:13.552Z,19.07
2019-01-29T14:16:00.488Z,17.85
2019-01-29T14:18:29.528Z,18.80
2019-01-29T14:20:58.006Z,22.87
2019-01-29T14:23:25.862Z,19.37
2019-01-29T14:25:53.682Z,19.45
2019-01-29T14:28:21.557Z,26.07
2019-01-29T14:30:49.514Z,17.77
2019-01-29T14:33:17.410Z,21.42
2019-01-29T14:35:45.282Z,19.70
2019-01-29T14:38:32.017Z,20.55
2019-01-29T14:41:00.815Z,19.70
2019-01-29T14:43:29.461Z,20.82
2019-01-29T14:45:58.587Z,18.37
2019-01-29T14:48:26.562Z,19.05
2019-01-29T14:50:54.459Z,17.67
2019-01-29T14:53:22.377Z,17.02
2019-01-29T14:55:50.285Z,16.75
2019-01-29T14:58:18.218Z,15.35
2019-01-29T15:00:46.126Z,16.23
2019-01-29T15:03:14.000Z,16.48
2019-01-29T15:05:41.822Z,19.32
2019-01-29T15:08:09.781Z,16.60
2019-01-29T15:10:37.697Z,15.85
2019-01-29T15:13:06.081Z,15.95
2019-01-29T15:15:35.821Z,14.93
2019-01-29T15:18:12.804Z,13.70
2019-01-29T15:20:40.689Z,15.55
2019-01-29T15:23:08.577Z,14.33
2019-01-29T15:25:36.406Z,13.55
2019-01-29T15:28:04.705Z,15.05
2019-01-29T15:30:32.713Z,14.05
2019-01-29T15:33:00.645Z,14.43
2019-01-29T15:35:28.574Z,14.93
2019-01-29T15:37:56.491Z,12.13
2019-01-29T15:40:24.410Z,15.55
2019-01-29T15:42:52.236Z,13.98
2019-01-29T15:45:20.122Z,18.73
2019-01-29T15:47:47.997Z,12.90
2019-01-29T15:50:17.351Z,12.10
2019-01-29T15:52:48.565Z,12.73
2019-01-29T15:55:14.904Z,14.63
2019-01-29T15:57:42.865Z,14.07
2019-01-29T16:00:15.409Z,15.15
2019-01-29T16:02:43.237Z,13.40
2019-01-29T16:05:12.809Z,13.93
2019-01-29T16:07:40.638Z,13.78
2019-01-29T16:10:09.456Z,13.03
2019-01-29T16:12:37.342Z,14.47
2019-01-29T16:15:05.909Z,12.75
2019-01-29T16:17:33.774Z,13.08
2019-01-29T16:20:01.674Z,13.95
2019-01-29T16:22:29.638Z,13.93
2019-01-29T16:24:57.545Z,17.07
2019-01-29T16:27:25.457Z,13.10
2019-01-29T16:29:53.320Z,13.85
2019-01-29T16:32:21.197Z,15.90
2019-01-29T16:34:49.078Z,14.10
2019-01-29T16:37:16.982Z,14.10
2019-01-29T16:39:44.871Z,14.87
2019-01-29T16:42:12.693Z,13.13
2019-01-29T16:44:40.565Z,14.13
2019-01-29T16:47:08.563Z,15.38
2019-01-29T16:49:36.408Z,14.35
2019-01-29T16:52:04.574Z,15.78
2019-01-29T16:54:32.454Z,15.68
2019-01-29T16:57:00.333Z,13.62
2019-01-29T16:59:28.250Z,15.15
2019-01-29T17:01:56.118Z,16.23
2019-01-29T17:04:23.973Z,15.70
2019-01-29T17:06:55.433Z,15.70
2019-01-29T17:09:23.277Z,14.47
2019-01-29T17:11:51.189Z,14.25
2019-01-29T17:14:19.074Z,15.48
2019-01-29T17:16:46.966Z,13.78
2019-01-29T17:19:14.891Z,15.43
2019-01-29T17:21:42.893Z,15.48
2019-01-29T17:24:10.806Z,15.50
2019-01-29T17:26:38.657Z,14.28
2019-01-29T17:29:06.612Z,15.70
2019-01-29T17:31:34.593Z,16.77
2019-01-29T17:34:02.482Z,17.48
2019-01-29T17:36:31.637Z,16.27
2019-01-29T17:38:59.554Z,15.72
2019-01-29T17:41:27.452Z,15.90
2019-01-29T17:43:55.386Z,15.28
2019-01-29T17:46:24.714Z,15.55
2019-01-29T17:48:52.682Z,15.38
2019-01-29T17:51:21.032Z,17.27
2019-01-29T17:53:49.001Z,19.25
2019-01-29T17:56:18.552Z,16.40
2019-01-29T17:58:50.015Z,14.98
2019-01-29T18:01:18.841Z,14.20
2019-01-29T18:03:46.781Z,15.78
2019-01-29T18:06:15.689Z,15.13
2019-01-29T18:08:49.957Z,15.43
2019-01-29T18:11:16.063Z,18.73
2019-01-29T18:13:45.070Z,15.85
2019-01-29T18:16:13.682Z,15.35
2019-01-29T18:18:41.661Z,18.00
2019-01-29T18:21:12.549Z,15.10
2019-01-29T18:23:40.514Z,20.88
2019-01-29T18:26:08.632Z,14.90
2019-01-29T18:28:39.599Z,15.60
2019-01-29T18:31:07.425Z,14.35
2019-01-29T18:33:35.373Z,15.75
2019-01-29T18:36:06.270Z,13.72
2019-01-29T18:38:34.201Z,15.88
2019-01-29T18:41:03.456Z,18.67
2019-01-29T18:43:31.409Z,15.88
2019-01-29T18:45:59.426Z,15.53
2019-01-29T18:48:27.335Z,15.48
2019-01-29T18:50:57.645Z,17.07
2019-01-29T18:53:26.999Z,14.55
2019-01-29T18:55:56.127Z,14.85
2019-01-29T18:58:24.058Z,14.90
2019-01-29T19:00:54.747Z,16.05
2019-01-29T19:03:23.498Z,15.60
2019-01-29T19:05:51.655Z,17.67
2019-01-29T19:08:19.495Z,14.05
2019-01-29T19:10:47.435Z,16.32
2019-01-29T19:13:16.350Z,14.75
2019-01-29T19:15:47.538Z,15.78
2019-01-29T19:18:15.468Z,14.33
2019-01-29T19:20:44.089Z,16.02
2019-01-29T19:23:13.819Z,16.90
2019-01-29T19:25:41.781Z,16.75
2019-01-29T19:28:09.759Z,16.12
2019-01-29T19:30:37.706Z,14.78
2019-01-29T19:33:05.655Z,14.87
2019-01-29T19:35:33.665Z,15.30
2019-01-29T19:38:01.623Z,14.87
2019-01-29T19:40:29.760Z,14.33
2019-01-29T19:43:00.225Z,14.58
2019-01-29T19:45:29.262Z,14.80
2019-01-29T19:47:57.984Z,14.75
2019-01-29T19:50:26.235Z,14.90
2019-01-29T19:52:54.284Z,14.20
2019-01-29T19:55:23.044Z,14.18
2019-01-29T19:57:51.106Z,14.33
2019-01-29T20:00:20.605Z,13.60
2019-01-29T20:02:48.684Z,16.52
2019-01-29T20:05:16.741Z,15.30
2019-01-29T20:07:44.670Z,13.95
2019-01-29T20:10:13.403Z,12.98
2019-01-29T20:12:47.909Z,14.70
2019-01-29T20:15:16.573Z,19.32
2019-01-29T20:17:46.363Z,14.78
2019-01-29T20:20:24.143Z,13.98
2019-01-29T20:22:53.457Z,16.00
2019-01-29T20:25:21.849Z,14.65
2019-01-29T20:27:49.981Z,15.85
2019-01-29T20:30:20.463Z,14.47
2019-01-29T20:32:53.401Z,17.20
2019-01-29T20:35:18.079Z,14.83
2019-01-29T20:37:46.033Z,14.28
2019-01-29T20:40:21.008Z,16.27
2019-01-29T20:42:51.025Z,15.78
2019-01-29T20:45:20.358Z,15.68
2019-01-29T20:47:48.360Z,17.35
2019-01-29T20:50:20.246Z,14.33
2019-01-29T20:52:48.205Z,13.95
2019-01-29T20:55:16.266Z,15.05
2019-01-29T20:57:44.211Z,13.22
2019-01-29T21:00:16.312Z,14.93
2019-01-29T21:02:44.206Z,13.35
2019-01-29T21:05:12.706Z,16.05
2019-01-29T21:07:40.694Z,13.08
2019-01-29T21:10:11.165Z,14.90
2019-01-29T21:12:39.347Z,17.45
2019-01-29T21:15:08.722Z,14.87
2019-01-29T21:17:38.153Z,15.88
2019-01-29T21:20:08.186Z,15.15
2019-01-29T21:22:36.252Z,15.10
2019-01-29T21:25:06.364Z,17.42
2019-01-29T21:27:34.340Z,16.12
2019-01-29T21:30:02.284Z,16.60
2019-01-29T21:32:32.345Z,16.10
2019-01-29T21:35:00.276Z,17.55
2019-01-29T21:37:29.477Z,17.15
2019-01-29T21:39:57.405Z,16.60
2019-01-29T21:42:25.400Z,15.95
2019-01-29T21:44:53.294Z,15.48
2019-01-29T21:47:23.347Z,15.75
2019-01-29T21:49:51.274Z,16.00
2019-01-29T21:52:20.786Z,16.12
2019-01-29T21:54:48.768Z,17.23
2019-01-29T21:57:16.693Z,16.05
2019-01-29T21:59:44.751Z,17.05
2019-01-29T22:02:13.296Z,17.30
2019-01-29T22:04:42.216Z,17.65
2019-01-29T22:07:10.122Z,18.25
2019-01-29T22:09:38.673Z,17.12
2019-01-29T22:12:07.924Z,23.87
2019-01-29T22:14:35.897Z,20.15
2019-01-29T22:17:09.907Z,20.27
2019-01-29T22:19:33.534Z,19.10
2019-01-29T22:22:01.584Z,16.55
2019-01-29T22:24:31.136Z,18.30
2019-01-29T22:27:01.166Z,18.23
2019-01-29T22:29:31.167Z,18.77
2019-01-29T22:31:59.127Z,19.30
2019-01-29T22:34:27.034Z,20.37
2019-01-29T22:36:54.886Z,19.62
2019-01-29T22:39:22.873Z,20.43
2019-01-29T22:41:50.968Z,23.22
2019-01-29T22:44:18.902Z,20.02
2019-01-29T22:46:46.774Z,21.02
2019-01-29T22:49:14.681Z,22.70
2019-01-29T22:51:42.621Z,19.20
2019-01-29T22:54:10.564Z,21.55
2019-01-29T22:56:40.045Z,20.20
2019-01-29T22:59:07.960Z,29.32
2019-01-29T23:01:41.840Z,22.75
2019-01-29T23:04:19.945Z,20.12
2019-01-29T23:06:52.229Z,20.02
2019-01-29T23:09:20.187Z,27.05
2019-01-29T23:11:48.063Z,24.43
2019-01-29T23:14:17.135Z,21.77
2019-01-29T23:16:45.011Z,21.20
2019-01-29T23:19:12.982Z,21.33
2019-01-29T23:21:40.966Z,25.08
2019-01-29T23:24:10.919Z,24.25
2019-01-29T23:26:39.134Z,20.55
2019-01-29T23:29:07.522Z,21.68
2019-01-29T23:31:37.450Z,24.12
2019-01-29T23:34:05.993Z,21.17
2019-01-29T23:36:33.949Z,21.50
2019-01-29T23:39:01.801Z,20.55
2019-01-29T23:41:31.163Z,21.17
2019-01-29T23:44:00.083Z,27.00
2019-01-29T23:46:29.188Z,19.62
2019-01-29T23:48:57.041Z,21.82
2019-01-29T23:51:25.015Z,23.07
2019-01-29T23:53:53.276Z,24.75
2019-01-29T23:56:22.782Z,24.65
2019-01-29T23:58:50.625Z,22.13
